Time;durP1;ratioP1;P1;durP2;ratioP2;P2;SDS_P1;SDS_P2;PMS_P1;PMS_P2;Temp;Humidity;BMP_temperature;BMP_pressure;BME280_temperature;BME280_humidity;BME280_pressure;Samples;Min_cycle;Max_cycle;Signal;HPM_P1;HPM_P2
2023/09/19 00:01:59;;;;;;;7.07;2.10;;;;;;;24.07;45.13;100625.66;5072786;28;20028;-60
2023/09/19 00:04:28;;;;;;;8.63;1.48;;;;;;;24.05;44.59;100636.00;5072910;28;20107;-60
2023/09/19 00:06:54;;;;;;;6.32;2.03;;;;;;;24.03;44.78;100630.78;5075807;28;20089;-60
2023/09/19 00:09:19;;;;;;;10.00;1.15;;;;;;;24.01;44.95;100640.28;5075446;28;20472;-60
2023/09/19 00:11:47;;;;;;;2.53;0.90;;;;;;;23.97;45.02;100630.81;5076753;28;20384;-60
2023/09/19 00:14:13;;;;;;;3.50;0.98;;;;;;;24.00;45.17;100638.56;5077553;28;20028;-60
2023/09/19 00:16:40;;;;;;;3.80;1.02;;;;;;;24.00;45.16;100635.84;5079560;28;20118;-60
2023/09/19 00:19:08;;;;;;;4.32;0.93;;;;;;;23.97;44.91;100639.03;5079846;28;20035;-60
2023/09/19 00:21:35;;;;;;;15.10;3.90;;;;;;;23.92;45.26;100638.84;5080687;28;20033;-60
2023/09/19 00:24:01;;;;;;;4.18;1.90;;;;;;;23.88;45.61;100646.66;5079248;28;20066;-60
2023/09/19 00:26:30;;;;;;;5.97;1.23;;;;;;;23.87;45.43;100646.88;5081279;28;20116;-62
2023/09/19 00:28:57;;;;;;;9.55;1.58;;;;;;;23.85;45.09;100648.97;5075514;28;20047;-61
2023/09/19 00:31:25;;;;;;;4.20;0.80;;;;;;;23.84;45.69;100647.31;5076188;28;20024;-61
2023/09/19 00:33:51;;;;;;;7.60;1.08;;;;;;;23.80;44.93;100657.84;5076003;28;20492;-61
2023/09/19 00:36:18;;;;;;;3.45;1.10;;;;;;;23.81;45.43;100661.44;5074809;28;20036;-61
2023/09/19 00:38:45;;;;;;;5.13;1.42;;;;;;;23.82;45.27;100660.38;5074920;28;20032;-60
2023/09/19 00:41:12;;;;;;;7.25;1.42;;;;;;;23.79;45.75;100661.66;5075740;28;20036;-60
2023/09/19 00:43:39;;;;;;;5.70;0.80;;;;;;;23.78;44.89;100655.31;5074595;28;20523;-61
2023/09/19 00:46:06;;;;;;;5.15;0.95;;;;;;;23.78;45.69;100674.47;5074651;28;20037;-61
2023/09/19 00:48:31;;;;;;;9.18;1.30;;;;;;;23.75;45.47;100666.72;5075777;28;20028;-60
2023/09/19 00:51:00;;;;;;;4.85;0.90;;;;;;;23.76;45.40;100678.50;5074535;28;20060;-60
2023/09/19 00:53:27;;;;;;;6.00;1.50;;;;;;;23.76;45.16;100684.81;5074494;28;20040;-60
2023/09/19 00:55:52;;;;;;;6.30;0.88;;;;;;;23.74;45.41;100678.72;5075622;28;20033;-60
2023/09/19 00:58:18;;;;;;;4.47;0.82;;;;;;;23.71;45.46;100681.91;5074219;28;20492;-60
2023/09/19 01:00:44;;;;;;;4.57;1.42;;;;;;;23.71;45.87;100692.00;5075569;28;20066;-60
2023/09/19 01:03:10;;;;;;;11.60;1.98;;;;;;;23.70;45.71;100693.88;5074071;28;20024;-61
2023/09/19 01:05:36;;;;;;;4.93;0.90;;;;;;;23.68;45.82;100690.53;5074026;28;20466;-60
2023/09/19 01:08:01;;;;;;;7.20;1.00;;;;;;;23.67;45.51;100691.59;5075404;28;20060;-60
2023/09/19 01:10:26;;;;;;;4.40;0.95;;;;;;;23.70;45.19;100706.75;5056942;28;20029;-60
2023/09/19 01:13:11;;;;;;;10.60;1.58;;;;;;;23.68;45.12;100701.47;5075154;28;20044;-64
2023/09/19 01:15:39;;;;;;;1.98;0.93;;;;;;;23.67;46.20;100713.47;5075131;28;20047;-64
2023/09/19 01:18:42;;;;;;;7.40;1.05;;;;;;;23.67;45.25;100712.66;5072519;28;20416;-64
2023/09/19 01:21:14;;;;;;;4.15;1.00;;;;;;;23.62;45.22;100710.53;5075155;28;20033;-64
2023/09/19 01:24:15;;;;;;;3.65;1.00;;;;;;;23.60;45.42;100718.13;5073854;28;20147;-64
2023/09/19 01:26:40;;;;;;;8.07;1.40;;;;;;;23.56;45.65;100725.09;5073654;28;20028;-64
2023/09/19 01:29:24;;;;;;;9.00;1.23;;;;;;;23.55;45.84;100726.16;5074882;28;20040;-64
2023/09/19 01:31:54;;;;;;;11.90;1.60;;;;;;;23.53;46.05;100717.34;5074908;28;20385;-66
2023/09/19 01:34:19;;;;;;;7.85;1.35;;;;;;;23.53;46.24;100722.81;5057140;28;20029;-64
2023/09/19 01:36:45;;;;;;;6.68;1.05;;;;;;;23.49;45.82;100726.16;5074795;28;20133;-64
2023/09/19 01:39:13;;;;;;;4.47;0.98;;;;;;;23.46;45.79;100716.50;5074768;28;20539;-64
2023/09/19 01:41:46;;;;;;;9.13;1.10;;;;;;;23.47;46.45;100722.81;5073512;28;20408;-64
2023/09/19 01:44:19;;;;;;;10.27;1.23;;;;;;;23.46;45.55;100721.13;5073342;28;20400;-64
2023/09/19 01:46:47;;;;;;;2.65;0.95;;;;;;;23.42;46.50;100726.19;5073331;28;20119;-64
2023/09/19 01:49:18;;;;;;;8.70;1.48;;;;;;;23.38;46.09;100724.94;5056982;28;20047;-64
2023/09/19 01:52:02;;;;;;;3.03;1.10;;;;;;;23.40;45.51;100731.03;5074566;28;20131;-64
2023/09/19 01:54:31;;;;;;;13.07;1.40;;;;;;;23.39;45.79;100731.25;5056817;28;20051;-64
2023/09/19 01:57:14;;;;;;;6.40;1.02;;;;;;;23.40;46.39;100728.31;5073391;28;20056;-64
2023/09/19 01:59:45;;;;;;;5.32;1.45;;;;;;;23.40;45.51;100731.03;5073225;28;20032;-64
2023/09/19 02:02:12;;;;;;;6.43;1.10;;;;;;;23.41;45.58;100731.88;5073180;28;20052;-65
2023/09/19 02:04:37;;;;;;;4.93;2.00;;;;;;;23.42;45.93;100733.56;5073050;28;20055;-64
2023/09/19 02:07:05;;;;;;;9.00;1.27;;;;;;;23.38;45.51;100729.56;5072878;28;20508;-64
2023/09/19 02:09:30;;;;;;;12.73;1.70;;;;;;;23.36;46.01;100727.03;5072958;28;20031;-64
2023/09/19 02:11:56;;;;;;;8.88;1.63;;;;;;;23.35;45.39;100729.97;5074158;28;20040;-65
2023/09/19 02:14:22;;;;;;;5.38;1.13;;;;;;;23.35;45.44;100730.81;5073991;28;20086;-64
2023/09/19 02:16:50;;;;;;;8.48;1.45;;;;;;;23.33;46.00;100730.19;5055784;28;20085;-64
2023/09/19 02:19:15;;;;;;;4.40;0.90;;;;;;;23.37;46.15;100736.06;5073995;28;20024;-65
2023/09/19 02:21:41;;;;;;;7.18;1.95;;;;;;;23.37;46.17;100731.44;5074135;28;20032;-64
2023/09/19 02:24:08;;;;;;;5.30;0.77;;;;;;;23.38;45.70;100733.16;5073868;28;20040;-60
2023/09/19 02:26:35;;;;;;;4.57;1.02;;;;;;;23.36;45.49;100727.03;5072691;28;20492;-60
2023/09/19 02:29:01;;;;;;;6.25;1.17;;;;;;;23.34;46.27;100742.78;5055861;28;20035;-60
2023/09/19 02:31:29;;;;;;;20.20;1.67;;;;;;;23.31;45.85;100737.75;5073810;28;20020;-61
2023/09/19 02:33:56;;;;;;;6.90;1.35;;;;;;;23.31;46.27;100740.47;5073691;28;20022;-61
2023/09/19 02:36:23;;;;;;;8.05;1.63;;;;;;;23.31;46.16;100739.66;5073774;28;20090;-61
2023/09/19 02:38:49;;;;;;;11.95;1.13;;;;;;;23.28;45.99;100732.75;5073785;28;20380;-61
2023/09/19 02:41:14;;;;;;;3.88;0.98;;;;;;;23.28;46.14;100740.94;5072199;28;20020;-60
2023/09/19 02:43:39;;;;;;;3.22;1.05;;;;;;;23.28;45.24;100735.47;5072411;28;20483;-61
2023/09/19 02:46:05;;;;;;;6.82;1.40;;;;;;;23.26;45.50;100728.50;5072378;28;20028;-61
2023/09/19 02:48:32;;;;;;;4.03;1.23;;;;;;;23.29;45.64;100742.59;5072187;28;20117;-61
2023/09/19 02:50:57;;;;;;;4.80;1.73;;;;;;;23.27;46.25;100739.25;5072265;28;20480;-60
2023/09/19 02:53:23;;;;;;;5.38;1.27;;;;;;;23.22;46.21;100741.78;5073407;28;20016;-61
2023/09/19 02:55:49;;;;;;;10.27;1.52;;;;;;;23.23;45.38;100743.44;5072048;28;20468;-61
2023/09/19 02:58:15;;;;;;;5.78;1.00;;;;;;;23.24;45.85;100749.75;5072151;28;20028;-60
2023/09/19 03:00:47;;;;;;;6.65;1.70;;;;;;;23.24;46.25;100747.88;5071951;28;20039;-61
2023/09/19 03:03:13;;;;;;;5.55;2.00;;;;;;;23.22;45.40;100741.78;5072042;28;20024;-61
2023/09/19 03:05:38;;;;;;;6.35;0.98;;;;;;;23.20;45.42;100749.34;5073415;28;20035;-60
2023/09/19 03:08:04;;;;;;;4.75;1.73;;;;;;;23.21;45.98;100753.78;5073102;28;20028;-60
2023/09/19 03:10:30;;;;;;;6.47;1.10;;;;;;;23.16;45.75;100748.94;5073340;28;20043;-60
2023/09/19 03:12:59;;;;;;;10.80;2.53;;;;;;;23.13;45.82;100745.78;5072954;28;20048;-61
2023/09/19 03:15:25;;;;;;;3.63;0.90;;;;;;;23.09;45.86;100750.84;5073432;28;20033;-60
2023/09/19 03:17:53;;;;;;;9.52;1.48;;;;;;;23.07;45.46;100747.50;5072919;28;20361;-60
2023/09/19 03:20:18;;;;;;;3.63;1.23;;;;;;;23.04;45.80;100744.34;5071687;28;20498;-60
2023/09/19 03:22:44;;;;;;;4.70;1.33;;;;;;;23.00;45.46;100743.91;5073305;28;20036;-60
2023/09/19 03:25:11;;;;;;;6.25;1.52;;;;;;;22.99;46.51;100757.78;5072915;28;20484;-60
2023/09/19 03:27:38;;;;;;;6.60;1.73;;;;;;;22.96;46.02;100753.59;5072881;28;20496;-60
2023/09/19 03:30:08;;;;;;;7.38;1.40;;;;;;;22.94;46.15;100763.06;5072877;28;20029;-60
2023/09/19 03:32:37;;;;;;;10.10;0.93;;;;;;;22.93;46.11;100755.91;5073150;28;20112;-60
2023/09/19 03:35:05;;;;;;;6.13;0.90;;;;;;;22.93;46.23;100747.72;5071597;28;20507;-61
2023/09/19 03:37:31;;;;;;;8.15;1.80;;;;;;;22.90;45.54;100759.06;5071389;28;20082;-61
2023/09/19 03:39:56;;;;;;;10.55;1.60;;;;;;;22.87;46.66;100763.06;5070884;28;20036;-60
2023/09/19 03:42:25;;;;;;;11.65;1.60;;;;;;;22.84;46.72;100757.16;5071441;28;20021;-60
2023/09/19 03:44:52;;;;;;;4.82;1.23;;;;;;;22.80;46.22;100755.91;5072807;28;20043;-60
2023/09/19 03:47:18;;;;;;;7.85;1.33;;;;;;;22.80;45.83;100764.97;5071681;28;20063;-59
2023/09/19 03:49:44;;;;;;;8.60;1.50;;;;;;;22.80;45.86;100769.56;5071445;28;20580;-60
2023/09/19 03:52:09;;;;;;;7.45;1.55;;;;;;;22.77;45.55;100754.44;5071533;28;20115;-60
2023/09/19 03:54:35;;;;;;;4.43;1.48;;;;;;;22.77;45.61;100767.25;5071662;28;20119;-60
2023/09/19 03:57:00;;;;;;;8.65;2.03;;;;;;;22.78;46.44;100763.50;5071437;28;20035;-61
2023/09/19 03:59:25;;;;;;;7.40;1.27;;;;;;;22.77;46.49;100761.81;5071503;28;20481;-60
2023/09/19 04:01:55;;;;;;;5.40;1.40;;;;;;;22.75;46.65;100755.72;5072741;28;20413;-60
2023/09/19 04:04:21;;;;;;;13.40;2.28;;;;;;;22.74;45.80;100754.03;5072418;28;20029;-60
2023/09/19 04:06:46;;;;;;;5.70;1.40;;;;;;;22.71;46.14;100738.06;5054633;28;20035;-60
2023/09/19 04:09:12;;;;;;;5.32;1.50;;;;;;;22.69;46.12;100751.09;5072438;28;20116;-60
2023/09/19 04:11:37;;;;;;;8.93;2.40;;;;;;;22.65;46.32;100755.28;5054264;28;20040;-62
2023/09/19 04:14:04;;;;;;;3.80;1.65;;;;;;;22.69;46.19;100759.28;5071159;28;20039;-60
2023/09/19 04:16:29;;;;;;;12.75;1.65;;;;;;;22.68;45.80;100758.44;5071237;28;20105;-60
2023/09/19 04:18:54;;;;;;;6.05;1.20;;;;;;;22.68;46.23;100752.13;5071363;28;20500;-60
2023/09/19 04:21:20;;;;;;;7.82;1.70;;;;;;;22.70;45.45;100759.06;5071045;28;20114;-60
2023/09/19 04:23:45;;;;;;;5.95;1.00;;;;;;;22.68;45.93;100765.78;5072382;28;20045;-61
2023/09/19 04:26:12;;;;;;;7.85;1.20;;;;;;;22.66;45.66;100762.44;5071005;28;20029;-60
2023/09/19 04:28:38;;;;;;;5.18;1.20;;;;;;;22.65;45.48;100755.28;5054532;28;20123;-60
2023/09/19 04:31:03;;;;;;;8.18;1.35;;;;;;;22.65;45.51;100749.81;5071368;28;20048;-60
2023/09/19 04:33:30;;;;;;;9.50;1.70;;;;;;;22.65;46.16;100750.66;5071033;28;20169;-60
2023/09/19 04:35:55;;;;;;;4.25;1.60;;;;;;;22.65;45.49;100760.72;5072491;28;20114;-60
2023/09/19 04:38:21;;;;;;;7.65;2.15;;;;;;;22.66;45.61;100773.34;5071144;28;20491;-60
2023/09/19 04:40:47;;;;;;;10.35;1.75;;;;;;;22.66;46.33;100766.00;5070793;28;20482;-60
2023/09/19 04:43:12;;;;;;;8.57;1.23;;;;;;;22.66;45.28;100773.34;5070911;28;20032;-60
2023/09/19 04:45:39;;;;;;;7.93;1.73;;;;;;;22.68;45.66;100771.25;5072228;28;20039;-61
2023/09/19 04:48:06;;;;;;;14.68;1.48;;;;;;;22.67;46.36;100769.59;5070852;28;20499;-61
2023/09/19 04:50:31;;;;;;;6.32;1.20;;;;;;;22.65;46.15;100772.50;5070983;28;20046;-61
2023/09/19 04:52:57;;;;;;;8.63;1.23;;;;;;;22.68;45.40;100771.25;5073802;28;20123;-60
2023/09/19 04:55:22;;;;;;;7.57;1.25;;;;;;;22.67;45.32;100783.25;5074437;28;20043;-60
2023/09/19 04:57:52;;;;;;;8.02;0.93;;;;;;;22.64;45.88;100780.91;5074508;28;20518;-60
2023/09/19 05:00:24;;;;;;;12.00;1.48;;;;;;;22.65;45.41;100788.88;5074506;28;20036;-60
2023/09/19 05:02:55;;;;;;;10.93;1.90;;;;;;;22.65;46.11;100798.97;5075310;28;20032;-60
2023/09/19 05:05:20;;;;;;;5.65;1.30;;;;;;;22.63;45.76;100801.88;5075783;28;20029;-60
2023/09/19 05:07:46;;;;;;;10.00;1.77;;;;;;;22.64;45.23;100816.41;5076534;28;20403;-60
2023/09/19 05:10:12;;;;;;;9.82;1.90;;;;;;;22.59;45.88;100817.84;5075365;28;20025;-60
2023/09/19 05:12:38;;;;;;;7.47;1.38;;;;;;;22.57;45.83;100819.94;5057516;28;20043;-60
2023/09/19 05:15:07;;;;;;;9.82;2.08;;;;;;;22.57;46.38;100814.47;5074648;28;20119;-60
2023/09/19 05:17:34;;;;;;;8.30;1.55;;;;;;;22.57;45.77;100814.47;5074416;28;20492;-59
2023/09/19 05:20:35;;;;;;;7.13;1.67;;;;;;;22.62;45.85;100833.81;5075706;28;20066;-60
2023/09/19 05:23:13;;;;;;;11.05;1.75;;;;;;;22.66;46.04;100822.50;5071601;28;20036;-60
2023/09/19 05:25:40;;;;;;;9.55;1.38;;;;;;;22.65;46.33;100827.13;5073625;28;20041;-60
2023/09/19 05:28:11;;;;;;;6.25;1.45;;;;;;;22.64;45.71;100832.81;5075463;28;20507;-60
2023/09/19 05:30:38;;;;;;;9.18;1.40;;;;;;;22.61;45.52;100832.13;5057379;28;20090;-60
2023/09/19 05:33:04;;;;;;;10.32;1.50;;;;;;;22.60;46.28;100840.53;5057265;28;20116;-61
2023/09/19 05:35:30;;;;;;;6.28;1.13;;;;;;;22.60;45.67;100841.38;5074205;28;20052;-60
2023/09/19 05:37:57;;;;;;;7.50;1.30;;;;;;;22.61;46.23;100847.69;5073709;28;20500;-60
2023/09/19 05:40:24;;;;;;;7.20;1.60;;;;;;;22.61;45.62;100856.69;5073668;28;20036;-60
2023/09/19 05:42:50;;;;;;;7.22;1.08;;;;;;;22.60;46.64;100844.09;5073615;28;20099;-60
2023/09/19 05:45:22;;;;;;;9.38;1.20;;;;;;;22.62;46.78;100857.53;5074706;28;20032;-61
2023/09/19 05:47:48;;;;;;;6.88;1.20;;;;;;;22.61;46.44;100862.16;5057437;28;20040;-61
2023/09/19 05:50:14;;;;;;;9.23;1.15;;;;;;;22.60;45.52;100865.13;5074509;28;20036;-60
2023/09/19 05:52:40;;;;;;;9.98;2.40;;;;;;;22.58;46.01;100859.03;5073537;28;20611;-60
2023/09/19 05:55:07;;;;;;;6.07;1.45;;;;;;;22.57;46.18;100874.56;5056875;28;20119;-60
2023/09/19 05:57:33;;;;;;;13.50;1.98;;;;;;;22.56;46.72;100867.41;5057126;28;20120;-60
2023/09/19 05:59:59;;;;;;;10.15;1.40;;;;;;;22.58;46.58;100857.09;5056364;28;20029;-60
2023/09/19 06:02:28;;;;;;;8.05;1.52;;;;;;;22.62;46.76;100857.53;5073378;28;20397;-60
2023/09/19 06:04:55;;;;;;;6.95;1.70;;;;;;;22.68;45.77;100853.19;5056585;28;20408;-60
2023/09/19 06:07:22;;;;;;;6.43;1.38;;;;;;;22.68;45.63;100853.19;5073051;28;20031;-61
2023/09/19 06:09:47;;;;;;;7.78;1.92;;;;;;;22.70;46.36;100859.28;5073295;28;20032;-60
2023/09/19 06:12:15;;;;;;;17.05;2.05;;;;;;;22.73;45.77;100861.59;5073111;28;20070;-60
2023/09/19 06:14:40;;;;;;;7.57;1.25;;;;;;;22.73;45.88;100865.16;5074408;28;20078;-60
2023/09/19 06:17:06;;;;;;;6.15;1.25;;;;;;;22.77;46.45;100863.72;5056197;28;20475;-60
2023/09/19 06:19:32;;;;;;;6.65;1.92;;;;;;;22.79;45.54;100867.06;5074305;28;20040;-60
2023/09/19 06:21:59;;;;;;;6.00;1.52;;;;;;;22.81;45.88;100864.16;5073669;28;20029;-60
2023/09/19 06:24:25;;;;;;;8.63;1.15;;;;;;;22.84;46.49;100847.31;5073977;28;20021;-60
2023/09/19 06:26:52;;;;;;;7.25;1.50;;;;;;;22.89;46.13;100855.75;5072821;28;20411;-60
2023/09/19 06:29:18;;;;;;;10.73;1.02;;;;;;;22.94;46.44;100856.81;5074022;28;20086;-60
2023/09/19 06:31:44;;;;;;;6.18;1.58;;;;;;;22.97;46.39;100856.38;5073809;28;20119;-60
2023/09/19 06:34:10;;;;;;;7.38;2.55;;;;;;;23.02;45.41;100855.75;5072815;28;20036;-60
2023/09/19 06:36:35;;;;;;;5.97;1.40;;;;;;;23.07;45.67;100854.06;5072564;28;20052;-60
2023/09/19 06:39:01;;;;;;;6.07;1.45;;;;;;;23.11;45.54;100865.44;5072402;28;20048;-62
2023/09/19 06:41:26;;;;;;;8.77;1.17;;;;;;;23.15;46.08;100869.41;5073468;28;20553;-60
2023/09/19 06:43:53;;;;;;;10.80;1.40;;;;;;;23.20;45.95;100870.47;5072797;28;20060;-60
2023/09/19 06:46:18;;;;;;;10.60;1.35;;;;;;;23.26;45.76;100868.78;5073754;28;20055;-60
2023/09/19 06:48:44;;;;;;;7.00;1.38;;;;;;;23.31;45.88;100862.69;5073449;28;20036;-60
2023/09/19 06:51:09;;;;;;;7.65;1.75;;;;;;;23.32;45.31;100867.94;5072224;28;20040;-60
2023/09/19 06:53:35;;;;;;;6.57;1.10;;;;;;;23.38;45.18;100872.59;5072361;28;20082;-60
2023/09/19 06:56:02;;;;;;;4.95;1.05;;;;;;;23.45;44.96;100873.41;5055659;28;20477;-60
2023/09/19 06:58:27;;;;;;;5.30;1.58;;;;;;;23.53;45.04;100870.50;5073216;28;20086;-60
2023/09/19 07:00:53;;;;;;;9.18;1.40;;;;;;;23.58;45.02;100870.69;5038912;28;20492;-60
2023/09/19 07:03:21;;;;;;;6.43;1.05;;;;;;;23.66;45.00;100866.88;5073279;28;20037;-60
2023/09/19 07:05:48;;;;;;;6.43;1.50;;;;;;;23.73;45.11;100874.00;5055796;28;20116;-61
2023/09/19 07:08:13;;;;;;;16.58;1.90;;;;;;;23.83;44.80;100870.84;5072226;28;20028;-60
2023/09/19 07:10:48;;;;;;;3.95;1.02;;;;;;;24.00;45.46;100876.69;5071844;28;20404;-61
2023/09/19 07:13:16;;;;;;;9.23;1.90;;;;;;;24.12;44.64;100880.47;5056079;28;20376;-61
2023/09/19 07:15:49;;;;;;;7.38;1.38;;;;;;;24.25;45.25;100874.94;5072520;28;20056;-61
2023/09/19 07:18:16;;;;;;;4.35;1.10;;;;;;;24.37;44.53;100889.66;5071962;28;20028;-61
2023/09/19 07:20:48;;;;;;;18.17;1.75;;;;;;;24.51;44.76;100884.94;5071710;28;20404;-60
2023/09/19 07:23:18;;;;;;;12.93;1.20;;;;;;;24.58;44.58;100892.06;5072977;28;20024;-60
2023/09/19 07:25:43;;;;;;;5.70;1.42;;;;;;;24.68;44.15;100894.34;5071504;28;20048;-61
2023/09/19 07:28:08;;;;;;;7.13;1.27;;;;;;;24.76;43.89;100878.44;5054818;28;20033;-60
2023/09/19 07:30:37;;;;;;;12.10;1.38;;;;;;;24.92;44.48;100892.72;5072526;28;20037;-61
2023/09/19 07:33:04;;;;;;;5.93;1.05;;;;;;;25.06;43.80;100888.81;5071742;28;20032;-60
2023/09/19 07:35:29;;;;;;;12.75;3.10;;;;;;;25.21;43.63;100887.44;5072740;28;20028;-60
2023/09/19 07:37:56;;;;;;;24.00;1.75;;;;;;;25.32;43.53;100894.13;5054055;28;20579;-61
2023/09/19 07:40:23;;;;;;;6.75;1.70;;;;;;;25.35;43.68;100890.91;5071357;28;20037;-61
2023/09/19 07:42:50;;;;;;;6.40;1.13;;;;;;;25.38;43.81;100884.97;5071399;28;20404;-61
2023/09/19 07:45:16;;;;;;;10.45;1.50;;;;;;;25.41;43.20;100881.78;5072611;28;20033;-61
2023/09/19 07:47:46;;;;;;;11.02;1.33;;;;;;;25.44;43.08;100882.16;5071327;28;20032;-61
2023/09/19 07:50:12;;;;;;;5.75;1.15;;;;;;;25.49;43.33;100887.00;5072613;28;20382;-61
2023/09/19 07:52:39;;;;;;;1.42;0.73;;;;;;;25.53;43.42;100882.75;5072480;28;20432;-61
2023/09/19 07:55:08;;;;;;;6.18;2.13;;;;;;;25.65;43.47;100888.34;5071373;28;20029;-62
2023/09/19 07:57:35;;;;;;;10.07;2.08;;;;;;;25.80;43.07;100886.06;5055018;28;20024;-62
2023/09/19 08:00:00;;;;;;;11.02;1.35;;;;;;;25.89;42.88;100880.06;5072305;28;20112;-61
2023/09/19 08:02:26;;;;;;;8.32;1.58;;;;;;;25.98;43.08;100881.44;5072568;28;20161;-61
2023/09/19 08:04:52;;;;;;;13.30;1.90;;;;;;;26.11;42.12;100885.09;5054189;28;20044;-63
2023/09/19 08:07:18;;;;;;;3.97;1.42;;;;;;;26.17;42.25;100885.06;5054471;28;20040;-61
2023/09/19 08:09:48;;;;;;;5.53;1.38;;;;;;;26.30;41.92;100889.56;5072536;28;20016;-61
2023/09/19 08:12:14;;;;;;;22.25;3.00;;;;;;;26.44;42.02;100886.38;5071461;28;20020;-61
2023/09/19 08:14:41;;;;;;;6.05;1.00;;;;;;;26.59;41.78;100886.81;5071377;28;20021;-62
2023/09/19 08:17:08;;;;;;;4.82;1.50;;;;;;;26.77;41.77;100885.94;5071214;28;20380;-61
2023/09/19 08:19:33;;;;;;;10.60;1.98;;;;;;;26.91;41.32;100887.44;5071289;28;20039;-61
2023/09/19 08:21:59;;;;;;;9.85;0.95;;;;;;;26.96;41.17;100893.09;5071151;28;20100;-61
2023/09/19 08:24:28;;;;;;;7.20;1.33;;;;;;;27.07;40.96;100889.53;5071002;28;20395;-61
2023/09/19 08:26:54;;;;;;;4.43;1.52;;;;;;;27.29;41.70;100908.22;5073808;28;20047;-61
2023/09/19 08:29:20;;;;;;;5.25;2.03;;;;;;;27.39;40.80;100898.31;5074905;28;20025;-61
2023/09/19 08:31:47;;;;;;;5.22;1.38;;;;;;;27.51;41.00;100906.59;5074741;28;20062;-60
2023/09/19 08:34:13;;;;;;;7.82;1.48;;;;;;;27.59;40.22;100909.00;5075085;28;20036;-60
2023/09/19 08:36:39;;;;;;;6.85;1.25;;;;;;;27.54;40.57;100906.13;5074570;28;20090;-61
2023/09/19 08:39:04;;;;;;;7.38;1.30;;;;;;;27.61;39.89;100904.94;5075993;28;20524;-60
2023/09/19 08:41:29;;;;;;;5.82;1.27;;;;;;;27.68;40.62;100902.06;5074223;28;20041;-61
2023/09/19 08:44:01;;;;;;;9.30;1.10;;;;;;;27.70;40.21;100910.91;5074747;28;20078;-60
2023/09/19 08:46:31;;;;;;;7.53;1.20;;;;;;;27.72;39.78;100914.28;5076280;28;20036;-60
2023/09/19 08:49:10;;;;;;;12.20;1.60;;;;;;;27.70;40.42;100899.91;5074645;28;20038;-60
2023/09/19 08:51:46;;;;;;;5.95;1.38;;;;;;;27.69;40.28;100909.25;5074698;28;20024;-61
2023/09/19 08:54:29;;;;;;;4.10;0.75;;;;;;;27.80;40.23;100897.41;5058226;28;20032;-61
2023/09/19 08:56:56;;;;;;;12.30;1.80;;;;;;;27.90;39.79;100905.88;5074434;28;20036;-61
2023/09/19 08:59:26;;;;;;;6.47;1.60;;;;;;;27.93;40.31;100893.56;5075634;28;20032;-61
2023/09/19 09:01:53;;;;;;;4.35;2.08;;;;;;;27.97;39.25;100894.75;5074536;28;20090;-60
2023/09/19 09:04:20;;;;;;;6.40;1.23;;;;;;;28.15;39.56;100898.22;5074223;28;20043;-61
2023/09/19 09:06:48;;;;;;;5.63;1.08;;;;;;;28.19;38.99;100890.31;5074223;28;20108;-62
2023/09/19 09:09:14;;;;;;;4.88;1.17;;;;;;;28.28;39.20;100886.09;5074103;28;20028;-62
2023/09/19 09:11:40;;;;;;;3.10;0.98;;;;;;;28.44;38.66;100895.50;5075336;28;20024;-61
2023/09/19 09:14:07;;;;;;;3.10;1.52;;;;;;;28.53;38.81;100880.25;5077512;28;20492;-62
2023/09/19 09:16:32;;;;;;;6.38;1.13;;;;;;;28.63;39.00;100877.72;5076397;28;20040;-62
2023/09/19 09:18:58;;;;;;;3.40;1.20;;;;;;;28.72;38.91;100874.34;5076139;28;20411;-62
2023/09/19 09:21:26;;;;;;;3.33;0.93;;;;;;;28.82;37.98;100876.44;5077586;28;20037;-62
2023/09/19 09:23:53;;;;;;;7.60;1.92;;;;;;;28.88;38.33;100872.69;5077093;28;20029;-66
2023/09/19 09:26:42;;;;;;;7.38;1.63;;;;;;;28.91;37.89;100874.94;5074112;28;20083;-66
2023/09/19 09:29:08;;;;;;;7.38;1.63;;;;;;;28.96;37.86;100877.78;5075185;28;20106;-66
2023/09/19 09:31:33;;;;;;;7.07;1.10;;;;;;;29.18;37.54;100881.50;5073889;28;20492;-65
2023/09/19 09:33:59;;;;;;;4.47;1.23;;;;;;;29.53;37.67;100872.16;5057057;28;20056;-66
2023/09/19 09:36:35;;;;;;;9.52;1.20;;;;;;;30.34;36.04;100872.22;5073499;28;20119;-66
2023/09/19 09:39:15;;;;;;;7.82;1.45;;;;;;;31.34;35.05;100879.09;5073684;28;20043;-66
2023/09/19 09:41:41;;;;;;;3.88;1.00;;;;;;;31.09;35.15;100882.47;5074688;28;20072;-66
2023/09/19 09:44:17;;;;;;;4.88;1.45;;;;;;;31.02;35.71;100879.06;5073411;28;20079;-66
2023/09/19 09:47:27;;;;;;;6.35;1.08;;;;;;;30.94;35.82;100885.09;5073541;28;20032;-66
2023/09/19 09:49:35;;;;;;;5.10;1.48;;;;;;;30.86;35.58;100871.69;5073600;28;20041;-66
2023/09/19 09:52:16;;;;;;;5.38;0.90;;;;;;;30.70;35.41;100878.19;5073265;28;20035;-66
2023/09/19 09:54:59;;;;;;;5.72;1.77;;;;;;;30.58;35.81;100870.03;5074411;28;20025;-67
2023/09/19 09:57:25;;;;;;;4.75;0.82;;;;;;;30.49;35.82;100871.56;5074531;28;20035;-65
2023/09/19 09:59:58;;;;;;;8.13;1.20;;;;;;;30.41;35.46;100874.81;5074401;28;20032;-65
2023/09/19 10:02:36;;;;;;;7.25;1.27;;;;;;;30.30;35.23;100865.53;5073249;28;20029;-65
2023/09/19 10:05:30;;;;;;;4.32;1.02;;;;;;;30.22;35.54;100865.13;5073180;28;20028;-66
2023/09/19 10:08:09;;;;;;;5.88;1.05;;;;;;;30.15;36.05;100865.31;5073197;28;20116;-63
2023/09/19 10:13:12;;;;;;;5.22;1.73;;;;;;;29.89;35.67;100866.94;5072818;28;20043;-65
2023/09/19 10:15:37;;;;;;;4.88;1.13;;;;;;;29.86;35.45;100866.59;5072848;28;20518;-64
2023/09/19 10:18:08;;;;;;;4.78;1.33;;;;;;;29.79;35.56;100854.84;5072803;28;20025;-65
2023/09/19 10:20:38;;;;;;;9.65;1.33;;;;;;;29.78;35.73;100858.72;5073927;28;20037;-69
2023/09/19 10:23:15;;;;;;;14.60;1.50;;;;;;;29.77;35.75;100866.16;5073151;28;20119;-65
2023/09/19 10:25:42;;;;;;;8.57;2.22;;;;;;;29.83;35.29;100878.16;5072905;28;20033;-65
2023/09/19 10:28:13;;;;;;;3.90;1.10;;;;;;;30.01;35.37;100853.00;5072686;28;20056;-65
2023/09/19 10:30:44;;;;;;;8.77;1.10;;;;;;;30.06;35.35;100844.78;5072453;28;20032;-65
2023/09/19 10:33:11;;;;;;;4.07;1.07;;;;;;;30.11;35.04;100850.38;5073876;28;20052;-68
2023/09/19 10:35:41;;;;;;;3.90;1.30;;;;;;;30.16;35.20;100853.19;5073883;28;20028;-66
2023/09/19 10:38:10;;;;;;;4.75;0.80;;;;;;;30.35;35.11;100845.38;5072383;28;20050;-67
2023/09/19 10:40:40;;;;;;;5.75;0.93;;;;;;;30.47;34.48;100852.50;5072328;28;20052;-66
2023/09/19 10:43:06;;;;;;;7.55;1.10;;;;;;;30.80;34.11;100856.97;5072600;28;20044;-66
2023/09/19 10:45:33;;;;;;;5.22;1.80;;;;;;;31.02;34.17;100848.63;5072465;28;20028;-66
2023/09/19 10:47:59;;;;;;;4.10;1.35;;;;;;;31.21;34.02;100858.25;5073506;28;20040;-67
2023/09/19 10:50:27;;;;;;;8.50;1.30;;;;;;;31.31;34.10;100860.22;5071950;28;20552;-66
2023/09/19 10:53:04;;;;;;;5.35;1.73;;;;;;;31.54;33.88;100857.97;5055564;28;20036;-63
2023/09/19 10:55:30;;;;;;;12.23;1.60;;;;;;;31.81;32.93;100859.78;5072262;28;20044;-63
2023/09/19 10:58:09;;;;;;;4.50;1.00;;;;;;;32.19;32.14;100854.72;5072245;28;20032;-64
2023/09/19 11:00:51;;;;;;;3.63;1.30;;;;;;;32.63;32.83;100857.97;5072185;28;20033;-64
2023/09/19 11:03:23;;;;;;;4.37;1.13;;;;;;;32.86;31.55;100851.03;5073373;28;20066;-63
2023/09/19 11:06:17;;;;;;;5.53;1.10;;;;;;;33.04;32.11;100866.34;5073302;28;20037;-63
2023/09/19 11:11:40;;;;;;;6.38;1.58;;;;;;;33.67;30.71;100860.25;5072971;28;20051;-63
2023/09/19 11:14:28;;;;;;;2.92;1.00;;;;;;;34.06;30.30;100856.81;5073353;28;20381;-63
2023/09/19 11:17:17;;;;;;;5.82;1.05;;;;;;;34.44;29.96;100853.31;5073293;28;20170;-63
2023/09/19 11:22:51;;;;;;;5.72;1.33;;;;;;;34.75;30.73;100852.06;5073126;28;20032;-63
2023/09/19 11:25:34;;;;;;;7.63;1.90;;;;;;;34.88;30.74;100848.63;5072910;28;20039;-63
2023/09/19 11:28:05;;;;;;;4.90;1.83;;;;;;;35.05;29.97;100842.63;5072453;28;20193;-64
2023/09/19 11:30:43;;;;;;;8.95;1.00;;;;;;;35.04;30.02;100850.16;5071767;28;20114;-63
2023/09/19 11:33:23;;;;;;;5.68;1.50;;;;;;;35.35;29.52;100838.78;5071712;28;20035;-64
2023/09/19 11:36:01;;;;;;;5.68;1.58;;;;;;;35.82;28.34;100835.25;5072924;28;20033;-64
2023/09/19 11:38:49;;;;;;;5.53;1.27;;;;;;;35.91;28.73;100828.72;5071423;28;20066;-64
2023/09/19 11:41:27;;;;;;;3.38;1.55;;;;;;;35.96;28.77;100820.28;5071504;28;20050;-64